Time;durP1;ratioP1;P1;durP2;ratioP2;P2;SDS_P1;SDS_P2;PMS_P1;PMS_P2;Temp;Humidity;BMP_temperature;BMP_pressure;BME280_temperature;BME280_humidity;BME280_pressure;Samples;Min_cycle;Max_cycle;Signal;HPM_P1;HPM_P2
2022/08/30 00:01:19;;;;;;;3.67;1.33;;;20.60;88.10;;;;;;5044117;28;20041;-70
2022/08/30 00:03:45;;;;;;;;;;;20.60;88.20;;;;;;5033007;28;20052;-70
2022/08/30 00:06:13;;;;;;;5.43;1.48;;;20.60;88.00;;;;;;5031461;28;19913;-70
2022/08/30 00:08:40;;;;;;;6.72;1.42;;;20.50;88.00;;;;;;5032890;28;20037;-70
2022/08/30 00:11:08;;;;;;;4.05;1.40;;;20.50;88.30;;;;;;5032553;28;20041;-70
2022/08/30 00:13:39;;;;;;;7.95;1.63;;;20.50;88.30;;;;;;5031478;28;20096;-70
2022/08/30 00:16:07;;;;;;;4.30;1.20;;;20.50;88.50;;;;;;5032664;28;20029;-70
2022/08/30 00:18:34;;;;;;;4.75;1.52;;;20.50;88.50;;;;;;5032943;28;20033;-70
2022/08/30 00:20:59;;;;;;;3.92;1.63;;;20.50;88.60;;;;;;5036841;28;20029;-70
2022/08/30 00:23:25;;;;;;;4.47;2.13;;;20.50;88.60;;;;;;5052310;28;20074;-70
2022/08/30 00:25:51;;;;;;;4.35;1.40;;;20.50;88.60;;;;;;5032413;28;20033;-70
2022/08/30 00:28:17;;;;;;;3.40;1.52;;;20.50;88.60;;;;;;5031373;28;20029;-70
2022/08/30 00:30:44;;;;;;;7.43;1.60;;;20.50;88.60;;;;;;5049353;28;20021;-70
2022/08/30 00:33:10;;;;;;;4.05;1.75;;;20.40;88.60;;;;;;5038772;28;20120;-70
2022/08/30 00:35:38;;;;;;;4.82;1.50;;;20.40;88.50;;;;;;5051189;28;20033;-70
2022/08/30 00:38:05;;;;;;;9.85;1.80;;;20.50;88.40;;;;;;5050489;28;20477;-70
2022/08/30 00:40:31;;;;;;;4.93;1.75;;;20.40;88.30;;;;;;5032414;28;20041;-70
2022/08/30 00:42:58;;;;;;;2.47;1.50;;;20.40;88.20;;;;;;5035243;28;20112;-70
2022/08/30 00:45:32;;;;;;;3.42;1.40;;;20.40;88.10;;;;;;5031728;28;20041;-71
2022/08/30 00:47:59;;;;;;;3.35;1.63;;;20.40;88.20;;;;;;5024604;28;20022;-71
2022/08/30 00:50:29;;;;;;;3.38;1.60;;;20.40;88.20;;;;;;5031749;28;20033;-71
2022/08/30 00:52:58;;;;;;;2.80;1.40;;;20.40;88.30;;;;;;5030192;28;20021;-70
2022/08/30 00:55:25;;;;;;;4.55;1.92;;;20.40;88.30;;;;;;5034301;28;20510;-70
2022/08/30 00:57:55;;;;;;;4.47;1.50;;;20.40;88.30;;;;;;5036162;28;20040;-70
2022/08/30 01:00:20;;;;;;;9.07;2.05;;;20.30;88.30;;;;;;5031275;28;20029;-71
2022/08/30 01:02:47;;;;;;;4.47;1.67;;;20.30;88.40;;;;;;5032739;28;20075;-70
2022/08/30 01:05:13;;;;;;;6.07;1.88;;;20.30;88.40;;;;;;5032741;28;20044;-70
2022/08/30 01:07:40;;;;;;;6.03;2.10;;;20.30;88.50;;;;;;5033371;28;20029;-70
2022/08/30 01:10:08;;;;;;;7.25;1.90;;;20.30;88.50;;;;;;5031773;28;20049;-71
2022/08/30 01:12:35;;;;;;;7.72;2.05;;;20.20;88.50;;;;;;5031774;28;20119;-70
2022/08/30 01:15:03;;;;;;;5.13;2.10;;;20.30;88.60;;;;;;5031542;28;20033;-70
2022/08/30 01:17:28;;;;;;;1.58;1.48;;;20.30;88.60;;;;;;5032959;28;20041;-71
2022/08/30 01:19:57;;;;;;;3.38;1.70;;;20.20;88.50;;;;;;5033540;28;20159;-70
2022/08/30 01:22:33;;;;;;;2.92;1.65;;;20.20;88.60;;;;;;5034113;28;20033;-70
2022/08/30 01:25:01;;;;;;;3.53;2.05;;;20.30;88.70;;;;;;5031055;28;20489;-70
2022/08/30 01:27:28;;;;;;;3.03;1.60;;;20.20;88.50;;;;;;5033231;28;20025;-71
2022/08/30 01:29:56;;;;;;;4.00;1.50;;;20.20;88.30;;;;;;5036052;28;20116;-70
2022/08/30 01:32:24;;;;;;;6.43;1.90;;;20.20;88.90;;;;;;5037384;28;20037;-71
2022/08/30 01:34:50;;;;;;;4.35;1.92;;;20.20;88.10;;;;;;5035545;28;20030;-70
2022/08/30 01:37:20;;;;;;;4.82;1.63;;;20.10;88.00;;;;;;5034571;28;20488;-70
2022/08/30 01:39:46;;;;;;;6.78;2.08;;;20.20;87.90;;;;;;5035726;28;20038;-70
2022/08/30 01:42:16;;;;;;;4.18;1.98;;;20.10;87.60;;;;;;5034983;28;20071;-70
2022/08/30 01:44:42;;;;;;;5.22;1.85;;;20.10;87.80;;;;;;5035139;28;20040;-70
2022/08/30 01:47:07;;;;;;;8.45;2.22;;;20.10;87.90;;;;;;5035470;28;20036;-70
2022/08/30 01:49:33;;;;;;;8.93;2.03;;;20.10;88.00;;;;;;5035836;28;20041;-70
2022/08/30 01:51:59;;;;;;;6.78;1.98;;;20.00;88.00;;;;;;5034894;28;20025;-70
2022/08/30 01:54:24;;;;;;;4.07;2.00;;;20.10;88.20;;;;;;5035891;28;20030;-70
2022/08/30 01:56:50;;;;;;;4.55;1.63;;;20.00;88.30;;;;;;5039920;28;20558;-70
2022/08/30 01:59:16;;;;;;;3.70;1.80;;;20.00;88.40;;;;;;5036517;28;20037;-70
2022/08/30 02:01:42;;;;;;;3.67;1.90;;;20.00;88.40;;;;;;5045242;28;20033;-70
2022/08/30 02:04:10;;;;;;;3.95;1.90;;;19.90;88.50;;;;;;5034277;28;20037;-71
2022/08/30 02:06:37;;;;;;;8.45;1.92;;;20.00;88.70;;;;;;5033345;28;20086;-70
2022/08/30 02:09:03;;;;;;;4.10;1.90;;;19.90;88.70;;;;;;5034460;28;20472;-70
2022/08/30 02:11:29;;;;;;;6.47;2.20;;;19.90;88.80;;;;;;5035113;28;20060;-70
2022/08/30 02:13:55;;;;;;;2.80;2.00;;;19.90;88.80;;;;;;5037804;28;20040;-70
2022/08/30 02:16:22;;;;;;;16.02;2.83;;;19.90;88.80;;;;;;5043716;28;20037;-70
2022/08/30 02:18:50;;;;;;;4.07;2.20;;;19.90;88.90;;;;;;5034338;28;20040;-70
2022/08/30 02:21:16;;;;;;;9.90;2.47;;;19.90;89.00;;;;;;5024356;28;20393;-70
2022/08/30 02:23:42;;;;;;;5.30;2.00;;;19.90;89.10;;;;;;5038275;28;20017;-70
2022/08/30 02:26:08;;;;;;;5.65;2.08;;;19.80;89.20;;;;;;5041899;28;20037;-70
2022/08/30 02:28:34;;;;;;;3.00;1.98;;;19.80;89.20;;;;;;5033194;28;20037;-70
2022/08/30 02:31:00;;;;;;;3.33;2.15;;;19.80;89.20;;;;;;5041665;28;20388;-70
2022/08/30 02:33:25;;;;;;;8.32;3.10;;;19.80;89.30;;;;;;5039914;28;20029;-71
2022/08/30 02:35:51;;;;;;;3.30;2.00;;;19.80;89.30;;;;;;5052414;28;20419;-70
2022/08/30 02:38:17;;;;;;;5.45;1.80;;;19.80;89.30;;;;;;5037471;28;20057;-70
2022/08/30 02:40:43;;;;;;;8.63;2.10;;;19.70;89.30;;;;;;5037362;28;20029;-70
2022/08/30 02:43:10;;;;;;;2.75;2.00;;;19.70;89.40;;;;;;5041861;28;20037;-70
2022/08/30 02:45:36;;;;;;;5.13;2.20;;;19.70;89.50;;;;;;5042627;28;20018;-70
2022/08/30 02:48:02;;;;;;;3.83;2.17;;;19.70;89.70;;;;;;5039133;28;20053;-70
2022/08/30 02:50:29;;;;;;;5.07;2.55;;;19.70;89.90;;;;;;5040166;28;20033;-70
2022/08/30 02:52:55;;;;;;;4.10;2.28;;;19.60;90.00;;;;;;5042564;28;20033;-70
2022/08/30 02:55:21;;;;;;;6.22;2.30;;;19.70;90.00;;;;;;5028936;28;20053;-70
2022/08/30 02:57:47;;;;;;;4.53;2.53;;;19.70;90.10;;;;;;5034562;28;20036;-70
2022/08/30 03:00:17;;;;;;;5.68;2.40;;;19.60;90.10;;;;;;5036311;28;20041;-70
2022/08/30 03:02:43;;;;;;;6.35;2.70;;;19.70;90.20;;;;;;5043336;28;20052;-70
2022/08/30 03:05:11;;;;;;;9.35;2.30;;;19.60;90.20;;;;;;5038397;28;20029;-70
2022/08/30 03:07:38;;;;;;;4.05;2.78;;;19.60;90.30;;;;;;5049223;28;20370;-70
2022/08/30 03:10:04;;;;;;;5.43;2.63;;;19.60;90.40;;;;;;5052127;28;20420;-70
2022/08/30 03:12:31;;;;;;;4.35;2.65;;;19.60;90.50;;;;;;5049080;28;20465;-70
2022/08/30 03:14:57;;;;;;;3.67;2.28;;;19.60;90.50;;;;;;5041674;28;20045;-70
2022/08/30 03:17:23;;;;;;;6.78;2.70;;;19.50;90.60;;;;;;5035707;28;20032;-70
2022/08/30 03:19:48;;;;;;;11.13;2.45;;;19.50;90.70;;;;;;5042722;28;20075;-70
2022/08/30 03:22:14;;;;;;;5.95;2.10;;;19.50;90.70;;;;;;5041551;28;20578;-70
2022/08/30 03:24:40;;;;;;;3.85;1.95;;;19.50;90.70;;;;;;5037367;28;20029;-70
2022/08/30 03:27:06;;;;;;;5.05;1.98;;;19.50;90.70;;;;;;5036443;28;20033;-70
2022/08/30 03:29:33;;;;;;;4.88;1.95;;;19.50;90.60;;;;;;5041649;28;20041;-70
2022/08/30 03:31:59;;;;;;;6.80;1.95;;;19.50;90.60;;;;;;5040708;28;20057;-70
2022/08/30 03:34:25;;;;;;;4.35;1.85;;;19.50;90.50;;;;;;5034891;28;20098;-70
2022/08/30 03:36:52;;;;;;;6.97;2.42;;;19.50;90.50;;;;;;5039533;28;20385;-69
2022/08/30 03:39:19;;;;;;;3.72;2.15;;;19.50;90.50;;;;;;5038112;28;20025;-70
2022/08/30 03:41:45;;;;;;;4.82;2.20;;;19.50;90.50;;;;;;5037536;28;20530;-70
2022/08/30 03:44:10;;;;;;;3.92;2.17;;;19.50;90.40;;;;;;5042082;28;20033;-70
2022/08/30 03:46:37;;;;;;;8.55;2.47;;;19.40;90.40;;;;;;5040464;28;20048;-70
2022/08/30 03:49:04;;;;;;;6.53;3.00;;;19.50;90.40;;;;;;5030752;28;20129;-70
2022/08/30 03:51:29;;;;;;;6.65;2.22;;;19.40;90.40;;;;;;5040230;28;20123;-70
2022/08/30 03:53:55;;;;;;;4.13;1.70;;;19.40;90.40;;;;;;5032674;28;20069;-70
2022/08/30 03:56:21;;;;;;;4.97;2.15;;;19.40;90.40;;;;;;5034801;28;20025;-69
2022/08/30 03:58:47;;;;;;;4.93;2.20;;;19.40;90.50;;;;;;5047715;28;20407;-70
2022/08/30 04:01:14;;;;;;;3.47;1.83;;;19.30;90.50;;;;;;5030469;28;20029;-70
2022/08/30 04:03:39;;;;;;;3.35;1.90;;;19.40;90.50;;;;;;5038800;28;20123;-70
2022/08/30 04:06:05;;;;;;;3.55;1.95;;;19.30;90.50;;;;;;5043353;28;20113;-70
2022/08/30 04:08:30;;;;;;;5.30;2.30;;;19.40;90.50;;;;;;5047552;28;20029;-70
2022/08/30 04:10:56;;;;;;;7.93;2.33;;;19.30;90.50;;;;;;5035283;28;20049;-70
2022/08/30 04:13:23;;;;;;;5.07;2.80;;;19.30;90.50;;;;;;5047627;28;20033;-70
2022/08/30 04:15:49;;;;;;;6.65;2.08;;;19.30;90.50;;;;;;5034850;28;20490;-70
2022/08/30 04:18:15;;;;;;;4.68;2.20;;;19.30;90.50;;;;;;5049825;28;20043;-70
2022/08/30 04:20:41;;;;;;;5.43;2.03;;;19.30;90.50;;;;;;5042221;28;20095;-70
2022/08/30 04:23:07;;;;;;;5.28;2.10;;;19.30;90.50;;;;;;5042920;28;20056;-70
2022/08/30 04:25:33;;;;;;;4.22;2.22;;;19.30;90.50;;;;;;5035873;28;20056;-70
2022/08/30 04:28:00;;;;;;;5.88;1.80;;;19.30;90.50;;;;;;5037986;28;20503;-70
2022/08/30 04:30:25;;;;;;;5.10;2.10;;;19.30;90.50;;;;;;5049710;28;20025;-70
2022/08/30 04:32:51;;;;;;;5.18;1.92;;;19.20;90.50;;;;;;5052228;28;20116;-70
2022/08/30 04:35:17;;;;;;;2.90;1.88;;;19.20;90.50;;;;;;5032633;28;20060;-70
2022/08/30 04:37:43;;;;;;;5.25;2.35;;;19.20;90.60;;;;;;5032346;28;20446;-70
2022/08/30 04:40:09;;;;;;;5.18;2.50;;;19.20;90.60;;;;;;5030933;28;20026;-70
2022/08/30 04:42:35;;;;;;;6.57;2.40;;;19.20;90.80;;;;;;5032094;28;20063;-69
2022/08/30 04:45:06;;;;;;;3.00;2.13;;;19.10;90.60;;;;;;5031432;28;20104;-69
2022/08/30 04:47:32;;;;;;;8.57;2.38;;;19.20;90.60;;;;;;5031721;28;20029;-69
2022/08/30 04:49:58;;;;;;;6.47;2.55;;;19.10;90.60;;;;;;5032682;28;20405;-69
2022/08/30 04:52:24;;;;;;;3.72;2.22;;;19.20;90.60;;;;;;5032015;28;20417;-69
2022/08/30 04:54:54;;;;;;;5.68;2.35;;;19.10;90.60;;;;;;5030795;28;20045;-70
2022/08/30 04:57:21;;;;;;;5.13;2.25;;;19.10;90.60;;;;;;5032062;28;20036;-69
2022/08/30 04:59:47;;;;;;;3.92;2.00;;;19.20;90.60;;;;;;5033125;28;20477;-70
2022/08/30 05:02:13;;;;;;;6.82;2.38;;;19.10;90.60;;;;;;5032920;28;20037;-70
2022/08/30 05:05:38;;;;;;;6.93;2.30;;;19.10;90.60;;;;;;5031899;28;20044;-69
2022/08/30 05:07:24;;;;;;;5.88;2.05;;;19.10;90.60;;;;;;5032374;28;20029;-70
2022/08/30 05:09:49;;;;;;;4.40;2.20;;;19.10;90.60;;;;;;5033208;28;20055;-69
2022/08/30 05:12:15;;;;;;;5.25;2.15;;;19.10;90.60;;;;;;5031609;28;20048;-70
2022/08/30 05:14:40;;;;;;;5.35;2.38;;;19.00;90.60;;;;;;5034363;28;20042;-70
2022/08/30 05:17:06;;;;;;;8.23;2.35;;;19.00;90.60;;;;;;5034934;28;20064;-70
2022/08/30 05:19:32;;;;;;;4.22;2.42;;;19.00;90.60;;;;;;5033379;28;20025;-70
2022/08/30 05:21:58;;;;;;;5.00;2.40;;;19.10;90.70;;;;;;5030769;28;20031;-70
2022/08/30 05:24:25;;;;;;;7.55;2.60;;;19.00;90.60;;;;;;5033523;28;20037;-70
2022/08/30 05:26:50;;;;;;;3.90;2.25;;;19.00;90.70;;;;;;5036437;28;20023;-70
2022/08/30 05:29:16;;;;;;;6.03;2.15;;;19.00;90.70;;;;;;5035976;28;20495;-70
2022/08/30 05:31:43;;;;;;;7.22;2.42;;;19.00;90.70;;;;;;5043627;28;20025;-70
2022/08/30 05:34:10;;;;;;;7.65;2.53;;;18.90;90.70;;;;;;5034671;28;20041;-70
2022/08/30 05:36:37;;;;;;;5.93;2.47;;;19.00;90.70;;;;;;5034974;28;20028;-70
2022/08/30 05:39:04;;;;;;;8.35;2.38;;;19.00;90.70;;;;;;5036618;28;20065;-70
2022/08/30 05:41:30;;;;;;;12.65;2.63;;;18.90;90.70;;;;;;5031290;28;20040;-70
2022/08/30 05:43:57;;;;;;;3.47;2.17;;;18.90;90.80;;;;;;5030727;28;20029;-69
2022/08/30 05:46:23;;;;;;;8.05;2.50;;;18.90;90.90;;;;;;5034811;28;20036;-70
2022/08/30 05:48:49;;;;;;;5.55;2.30;;;18.90;90.90;;;;;;5030978;28;20041;-70
2022/08/30 05:51:21;;;;;;;5.40;2.30;;;18.90;91.00;;;;;;5034143;28;20075;-70
2022/08/30 05:53:48;;;;;;;6.28;2.30;;;18.90;91.10;;;;;;5036869;28;20045;-70
2022/08/30 05:56:18;;;;;;;6.65;2.38;;;18.90;91.10;;;;;;5034662;28;20132;-70
2022/08/30 05:58:44;;;;;;;3.55;1.83;;;18.90;91.20;;;;;;5032586;28;20393;-71
2022/08/30 06:01:31;;;;;;;6.57;1.80;;;18.90;91.30;;;;;;5032158;28;20033;-72
2022/08/30 06:03:59;;;;;;;3.78;1.90;;;18.90;91.30;;;;;;5030401;28;20026;-71
2022/08/30 06:06:25;;;;;;;2.63;1.60;;;18.90;91.40;;;;;;5032796;28;20048;-71
2022/08/30 06:08:51;;;;;;;5.57;2.20;;;18.90;91.40;;;;;;5031648;28;20079;-71
2022/08/30 06:11:19;;;;;;;3.95;1.60;;;18.90;91.50;;;;;;5032590;28;20037;-71
2022/08/30 06:13:46;;;;;;;6.72;1.55;;;18.90;91.50;;;;;;5038941;28;20066;-72
2022/08/30 06:16:14;;;;;;;6.57;1.67;;;18.90;91.50;;;;;;5034933;28;20021;-71
2022/08/30 06:18:40;;;;;;;4.13;1.77;;;18.90;91.50;;;;;;5041300;28;20036;-71
2022/08/30 06:21:07;;;;;;;7.28;1.77;;;18.90;91.50;;;;;;5044659;28;20037;-72
2022/08/30 06:23:33;;;;;;;3.03;1.80;;;18.90;91.50;;;;;;5046214;28;20048;-72
2022/08/30 06:26:06;;;;;;;2.90;1.70;;;18.90;91.50;;;;;;5045765;28;20032;-72
2022/08/30 06:28:33;;;;;;;4.00;1.60;;;19.00;91.60;;;;;;5038560;28;20469;-73
2022/08/30 06:30:58;;;;;;;6.15;1.60;;;19.00;91.50;;;;;;5038389;28;20029;-72
2022/08/30 06:33:24;;;;;;;5.88;1.40;;;19.00;91.50;;;;;;5039305;28;20045;-72
2022/08/30 06:35:50;;;;;;;6.60;1.40;;;19.00;91.50;;;;;;5049510;28;20040;-72
2022/08/30 06:38:16;;;;;;;4.63;1.73;;;19.10;91.50;;;;;;5039866;28;20155;-71
2022/08/30 06:40:41;;;;;;;4.00;1.60;;;19.00;91.40;;;;;;5023495;28;20025;-71
2022/08/30 06:43:07;;;;;;;4.10;1.60;;;19.10;91.40;;;;;;5047963;28;20067;-70
2022/08/30 06:45:34;;;;;;;3.25;1.70;;;19.10;91.30;;;;;;5033182;28;20052;-72
2022/08/30 06:48:00;;;;;;;1.65;1.02;;;19.10;91.10;;;;;;5037521;28;20120;-72
2022/08/30 06:50:26;;;;;;;3.38;1.58;;;19.20;91.00;;;;;;5052102;28;20118;-72
2022/08/30 06:52:52;;;;;;;8.45;1.48;;;19.20;90.90;;;;;;5037380;28;20036;-71
2022/08/30 06:55:18;;;;;;;3.25;1.42;;;19.20;90.90;;;;;;5044786;28;20033;-73
2022/08/30 06:57:44;;;;;;;4.63;1.35;;;19.10;90.80;;;;;;5041735;28;20033;-73
2022/08/30 07:00:15;;;;;;;1.98;1.13;;;19.20;90.70;;;;;;5049029;28;20029;-72
2022/08/30 07:02:41;;;;;;;2.63;1.48;;;19.30;90.70;;;;;;5048940;28;20017;-72
2022/08/30 07:05:10;;;;;;;2.03;1.15;;;19.30;90.70;;;;;;5047745;28;20480;-73
2022/08/30 07:07:36;;;;;;;1.30;1.02;;;19.30;90.50;;;;;;5044312;28;20029;-72
2022/08/30 07:10:04;;;;;;;3.78;1.25;;;19.30;90.40;;;;;;5034664;28;20050;-74
2022/08/30 07:12:30;;;;;;;3.63;1.83;;;19.30;90.30;;;;;;5044034;28;20082;-73
2022/08/30 07:14:56;;;;;;;3.47;1.08;;;19.30;90.30;;;;;;5048943;28;20498;-72
2022/08/30 07:20:06;;;;;;;2.63;1.08;;;19.30;90.20;;;;;;5041306;28;20033;-73
2022/08/30 07:22:32;;;;;;;1.88;1.13;;;19.30;90.00;;;;;;5044278;28;20420;-73
2022/08/30 07:24:58;;;;;;;2.90;0.95;;;19.40;90.00;;;;;;5044490;28;20116;-73
2022/08/30 07:27:24;;;;;;;2.58;1.33;;;19.40;89.90;;;;;;5042802;28;20120;-73
2022/08/30 07:29:50;;;;;;;1.50;1.10;;;19.40;89.50;;;;;;5045828;28;20048;-73
2022/08/30 07:32:15;;;;;;;2.20;1.33;;;19.40;89.50;;;;;;5044535;28;20431;-73
2022/08/30 07:34:41;;;;;;;3.30;1.30;;;19.50;89.50;;;;;;5045382;28;20472;-73
2022/08/30 07:37:07;;;;;;;2.55;1.10;;;19.50;89.30;;;;;;5045294;28;20021;-73
2022/08/30 07:39:32;;;;;;;2.28;1.13;;;19.50;89.40;;;;;;5041747;28;20484;-71
2022/08/30 07:41:58;;;;;;;1.77;1.30;;;19.50;90.00;;;;;;5047885;28;20079;-73
2022/08/30 07:44:24;;;;;;;9.95;1.15;;;19.60;89.20;;;;;;5046651;28;20086;-74
2022/08/30 07:46:49;;;;;;;1.20;1.10;;;19.50;89.20;;;;;;5046136;28;20431;-73
2022/08/30 07:49:15;;;;;;;4.15;1.63;;;19.50;89.00;;;;;;5044013;28;20053;-74
2022/08/30 07:51:41;;;;;;;7.97;1.30;;;19.50;88.70;;;;;;5046205;28;20381;-74
2022/08/30 07:54:07;;;;;;;0.98;0.70;;;19.60;88.70;;;;;;5046863;28;20541;-74
2022/08/30 07:56:33;;;;;;;2.58;1.10;;;19.60;88.90;;;;;;5039862;28;20115;-70
2022/08/30 07:58:58;;;;;;;2.78;1.10;;;19.70;88.90;;;;;;5040853;28;20039;-73
2022/08/30 08:01:24;;;;;;;2.78;1.23;;;19.70;89.10;;;;;;5043383;28;20033;-74
2022/08/30 08:03:50;;;;;;;2.88;1.08;;;19.70;89.00;;;;;;5042597;28;20039;-75
2022/08/30 08:06:17;;;;;;;0.75;0.60;;;19.70;89.00;;;;;;5045724;28;20025;-76
2022/08/30 08:08:44;;;;;;;1.65;0.93;;;19.60;89.30;;;;;;5038389;28;20073;-76
2022/08/30 08:11:16;;;;;;;1.58;1.10;;;19.70;89.50;;;;;;5044560;28;20055;-76
2022/08/30 08:13:43;;;;;;;3.22;0.90;;;19.70;89.50;;;;;;5032050;28;20033;-76
2022/08/30 08:16:09;;;;;;;1.95;0.82;;;19.70;89.50;;;;;;5048035;28;20028;-76
2022/08/30 08:18:34;;;;;;;5.53;1.17;;;19.60;89.90;;;;;;5043822;28;20037;-76
2022/08/30 08:21:00;;;;;;;4.28;1.08;;;19.60;89.60;;;;;;5046518;28;20075;-76
2022/08/30 08:23:27;;;;;;;4.32;1.35;;;19.70;89.50;;;;;;5046105;28;20457;-76
2022/08/30 08:25:53;;;;;;;2.10;1.15;;;19.70;89.60;;;;;;5043978;28;20067;-76
2022/08/30 08:28:19;;;;;;;1.83;1.10;;;19.70;89.90;;;;;;5036729;28;20064;-76
2022/08/30 08:30:45;;;;;;;1.23;0.90;;;19.70;90.00;;;;;;5044714;28;20033;-75
2022/08/30 08:33:12;;;;;;;2.45;1.35;;;19.70;90.00;;;;;;5046276;28;20024;-75
2022/08/30 08:35:38;;;;;;;2.67;1.02;;;19.70;89.60;;;;;;5038543;28;20049;-76
2022/08/30 08:38:04;;;;;;;2.35;1.02;;;19.70;89.40;;;;;;5038406;28;20025;-75
2022/08/30 08:40:42;;;;;;;1.02;0.70;;;19.70;89.30;;;;;;5036019;28;20037;-74
2022/08/30 08:43:12;;;;;;;2.97;1.33;;;19.70;89.20;;;;;;5047376;28;20033;-74
2022/08/30 08:46:04;;;;;;;1.67;1.20;;;19.70;89.10;;;;;;5049013;28;20108;-74
2022/08/30 08:48:45;;;;;;;3.40;1.20;;;19.80;89.50;;;;;;5018799;28;20485;-72
2022/08/30 08:54:07;;;;;;;6.68;1.17;;;19.80;88.30;;;;;;5038015;28;20053;-72
2022/08/30 08:56:33;;;;;;;2.13;1.20;;;19.90;87.90;;;;;;5042248;28;20030;-71
2022/08/30 08:58:59;;;;;;;5.13;1.20;;;19.90;87.60;;;;;;5042205;28;20548;-71
2022/08/30 09:01:28;;;;;;;5.38;1.20;;;19.90;87.60;;;;;;5041690;28;20142;-71
2022/08/30 09:04:01;;;;;;;2.00;1.10;;;19.90;87.30;;;;;;5041923;28;20040;-71
2022/08/30 09:06:51;;;;;;;1.27;0.90;;;19.90;86.50;;;;;;5027531;28;20028;-71
2022/08/30 09:09:22;;;;;;;2.67;1.20;;;20.00;86.80;;;;;;5033791;28;20029;-71
2022/08/30 09:11:48;;;;;;;3.67;2.33;;;20.00;86.70;;;;;;5036542;28;20092;-71
2022/08/30 09:14:28;;;;;;;3.65;1.02;;;20.00;86.50;;;;;;5041949;28;20081;-71
2022/08/30 09:17:04;;;;;;;2.90;1.30;;;20.00;86.10;;;;;;5041873;28;20071;-72
2022/08/30 09:19:31;;;;;;;4.80;1.45;;;20.00;85.90;;;;;;5041161;28;20059;-71
2022/08/30 09:22:02;;;;;;;2.47;0.95;;;20.10;85.50;;;;;;5032036;28;20026;-72
2022/08/30 09:24:41;;;;;;;3.10;1.80;;;20.10;85.50;;;;;;5040505;28;20797;-71
2022/08/30 09:27:26;;;;;;;8.63;1.40;;;20.10;85.20;;;;;;5047458;28;20044;-71
2022/08/30 09:29:58;;;;;;;2.10;0.95;;;20.20;84.90;;;;;;5038701;28;20043;-72
2022/08/30 09:32:29;;;;;;;2.55;1.50;;;20.20;85.20;;;;;;5032031;28;20080;-71
2022/08/30 09:34:56;;;;;;;2.53;1.10;;;20.20;85.10;;;;;;5032490;28;20037;-71
2022/08/30 09:37:29;;;;;;;1.10;0.93;;;20.20;85.10;;;;;;5050665;28;20029;-71
2022/08/30 09:39:55;;;;;;;5.57;1.08;;;20.30;84.00;;;;;;5034616;28;20048;-72
2022/08/30 09:42:24;;;;;;;1.27;0.80;;;20.40;83.00;;;;;;5031700;28;20381;-71
2022/08/30 09:44:52;;;;;;;2.20;1.20;;;20.40;83.50;;;;;;5030764;28;20095;-71
2022/08/30 09:47:26;;;;;;;2.35;1.50;;;20.50;83.70;;;;;;5034677;28;20036;-71
2022/08/30 09:50:07;;;;;;;4.13;1.30;;;20.50;82.90;;;;;;5034482;28;20033;-71
2022/08/30 09:52:46;;;;;;;2.05;1.25;;;20.60;82.80;;;;;;5034250;28;20087;-72
2022/08/30 09:55:32;;;;;;;3.58;1.40;;;20.60;82.80;;;;;;5026640;28;20037;-71
2022/08/30 09:58:28;;;;;;;2.47;1.42;;;20.60;83.50;;;;;;5036484;28;20025;-71
2022/08/30 10:01:24;;;;;;;2.30;0.88;;;20.70;83.60;;;;;;5035933;28;20052;-71
2022/08/30 10:04:19;;;;;;;3.30;1.15;;;20.70;83.20;;;;;;5034417;28;20037;-72
2022/08/30 10:06:53;;;;;;;3.40;0.98;;;20.70;82.70;;;;;;5027374;28;20469;-71
2022/08/30 10:09:46;;;;;;;3.35;1.35;;;20.70;82.00;;;;;;5036479;28;20072;-71
2022/08/30 10:12:24;;;;;;;3.30;1.15;;;20.80;80.70;;;;;;5038133;28;20045;-73
2022/08/30 10:15:04;;;;;;;3.92;1.20;;;20.80;81.80;;;;;;5046505;28;20443;-73
2022/08/30 10:18:03;;;;;;;1.35;1.00;;;20.80;83.60;;;;;;5050752;28;20033;-76
2022/08/30 10:20:40;;;;;;;1.08;0.70;;;20.90;84.40;;;;;;5048742;28;20030;-75
2022/08/30 10:23:18;;;;;;;1.73;0.98;;;21.00;86.00;;;;;;5052449;28;20472;-74
2022/08/30 10:25:59;;;;;;;7.20;0.88;;;21.00;85.90;;;;;;5050704;28;20051;-75
2022/08/30 10:28:42;;;;;;;1.75;0.85;;;21.00;85.80;;;;;;5044687;28;20047;-75
2022/08/30 10:31:27;;;;;;;1.65;1.13;;;21.00;85.60;;;;;;5046749;28;20040;-73
2022/08/30 10:33:59;;;;;;;0.95;0.73;;;21.00;85.80;;;;;;5050304;28;20049;-74
2022/08/30 10:36:36;;;;;;;1.33;0.88;;;21.10;84.80;;;;;;5050685;28;20033;-74
2022/08/30 10:39:02;;;;;;;1.73;1.17;;;21.10;84.20;;;;;;5047530;28;20029;-74
2022/08/30 10:41:36;;;;;;;0.75;0.47;;;21.20;84.20;;;;;;5046595;28;20032;-74
2022/08/30 10:44:21;;;;;;;1.45;1.02;;;21.20;85.30;;;;;;5032512;28;20032;-75
2022/08/30 10:46:53;;;;;;;1.88;1.05;;;21.20;84.30;;;;;;5038387;28;20087;-75
2022/08/30 10:49:22;;;;;;;1.42;0.80;;;21.20;83.50;;;;;;5032992;28;20033;-74
2022/08/30 10:52:03;;;;;;;5.78;0.80;;;21.30;83.70;;;;;;5038198;28;20507;-73
2022/08/30 10:54:30;;;;;;;1.70;0.85;;;21.40;83.40;;;;;;5040332;28;20102;-74
2022/08/30 10:56:57;;;;;;;1.85;0.70;;;21.50;83.90;;;;;;5049700;28;20033;-73
2022/08/30 10:59:23;;;;;;;1.98;0.90;;;21.50;84.30;;;;;;5036660;28;20025;-74
2022/08/30 11:02:17;;;;;;;6.80;0.88;;;21.50;84.00;;;;;;5031584;28;20033;-74
2022/08/30 11:04:45;;;;;;;;;;;21.50;83.60;;;;;;5047006;28;20028;-74
2022/08/30 11:07:20;;;;;;;3.78;1.13;;;21.50;84.90;;;;;;5046081;28;19909;-74
2022/08/30 11:09:59;;;;;;;2.20;1.10;;;21.60;83.50;;;;;;5036366;28;20124;-72
2022/08/30 11:12:33;;;;;;;0.60;0.60;;;21.70;83.30;;;;;;5034947;28;20025;-75
2022/08/30 11:15:10;;;;;;;2.88;1.08;;;21.70;83.60;;;;;;5032092;28;20045;-74
2022/08/30 11:17:57;;;;;;;0.93;0.65;;;21.70;83.70;;;;;;5030207;28;20059;-74
2022/08/30 11:20:45;;;;;;;3.70;1.00;;;21.70;84.50;;;;;;5040497;28;20088;-74
2022/08/30 11:23:17;;;;;;;2.83;1.10;;;21.70;83.70;;;;;;5040512;28;20036;-74
2022/08/30 11:26:00;;;;;;;1.13;0.75;;;21.70;84.00;;;;;;5031067;28;20497;-74
2022/08/30 11:28:35;;;;;;;0.98;0.55;;;21.70;84.80;;;;;;5044377;28;20036;-74
2022/08/30 11:31:26;;;;;;;0.82;0.82;;;21.70;84.50;;;;;;5043726;28;20040;-74
2022/08/30 11:33:56;;;;;;;1.70;0.90;;;21.70;84.00;;;;;;5043872;28;20079;-73
2022/08/30 11:36:31;;;;;;;5.57;1.40;;;21.70;84.90;;;;;;5044946;28;20039;-74
2022/08/30 11:39:03;;;;;;;1.63;1.00;;;21.70;83.80;;;;;;5043122;28;20468;-73
2022/08/30 11:41:40;;;;;;;3.92;1.10;;;21.70;84.10;;;;;;5040434;28;20092;-73
2022/08/30 11:44:21;;;;;;;4.80;0.90;;;21.70;83.80;;;;;;5042390;28;20572;-73
2022/08/30 11:46:48;;;;;;;1.73;0.98;;;21.80;83.30;;;;;;5044779;28;20053;-73
2022/08/30 11:49:17;;;;;;;0.65;0.65;;;21.80;84.00;;;;;;5040588;28;20039;-73
2022/08/30 11:52:03;;;;;;;1.00;0.77;;;21.80;84.40;;;;;;5044222;28;20475;-73
2022/08/30 11:54:39;;;;;;;1.45;0.93;;;21.90;84.10;;;;;;5043907;28;20042;-73
2022/08/30 11:57:25;;;;;;;5.38;1.00;;;21.90;84.00;;;;;;5042880;28;20036;-74
2022/08/30 12:00:02;;;;;;;2.95;1.00;;;22.00;83.70;;;;;;5044757;28;20043;-72
2022/08/30 12:02:57;;;;;;;1.70;0.75;;;22.00;84.00;;;;;;5036687;28;20041;-73
2022/08/30 12:05:52;;;;;;;1.40;0.85;;;22.00;83.80;;;;;;5043595;28;20036;-74
2022/08/30 12:08:33;;;;;;;1.70;1.17;;;22.10;83.60;;;;;;5031605;28;20034;-74
2022/08/30 12:11:04;;;;;;;11.48;1.60;;;22.10;83.70;;;;;;5046925;28;20500;-73
2022/08/30 12:13:38;;;;;;;4.22;1.30;;;22.20;83.50;;;;;;5047680;28;20055;-72
2022/08/30 12:16:20;;;;;;;2.78;1.00;;;22.20;83.90;;;;;;5047202;28;20120;-71
2022/08/30 12:19:03;;;;;;;5.88;1.00;;;22.20;84.50;;;;;;5042076;28;20029;-72
2022/08/30 12:21:34;;;;;;;2.40;1.05;;;22.20;83.90;;;;;;5043382;28;20083;-72
2022/08/30 12:24:16;;;;;;;1.55;0.80;;;22.30;83.70;;;;;;5032038;28;20034;-73
2022/08/30 12:26:45;;;;;;;11.63;1.55;;;22.30;84.90;;;;;;5039684;28;20033;-74
2022/08/30 12:29:24;;;;;;;1.95;0.85;;;22.30;83.40;;;;;;5038391;28;20037;-75
2022/08/30 12:32:13;;;;;;;1.50;0.82;;;22.30;83.10;;;;;;5034960;28;20436;-72
2022/08/30 12:34:39;;;;;;;1.88;0.90;;;22.40;83.40;;;;;;5032119;28;20046;-74
2022/08/30 12:37:27;;;;;;;2.80;1.13;;;22.40;83.10;;;;;;5051331;28;20116;-74
2022/08/30 12:40:08;;;;;;;2.95;0.93;;;22.50;83.20;;;;;;5034356;28;20037;-74
2022/08/30 12:42:36;;;;;;;1.63;1.25;;;22.50;83.80;;;;;;5032229;28;20065;-73
2022/08/30 12:45:09;;;;;;;4.63;1.13;;;22.40;82.00;;;;;;5031467;28;20036;-72
2022/08/30 12:47:46;;;;;;;4.63;1.00;;;22.40;82.60;;;;;;5031287;28;20032;-73
2022/08/30 12:50:17;;;;;;;3.33;1.05;;;22.50;82.80;;;;;;5031906;28;20545;-74
2022/08/30 12:52:46;;;;;;;0.75;0.65;;;22.50;82.40;;;;;;5033452;28;20503;-73
2022/08/30 12:55:28;;;;;;;2.20;1.17;;;22.50;83.00;;;;;;5046475;28;20037;-73
2022/08/30 12:58:09;;;;;;;2.60;0.85;;;22.50;82.50;;;;;;5043199;28;20029;-74
2022/08/30 13:00:38;;;;;;;4.30;0.85;;;22.60;83.70;;;;;;5038548;28;20388;-74
2022/08/30 13:03:05;;;;;;;3.08;0.95;;;22.60;83.40;;;;;;5050147;28;20033;-74
2022/08/30 13:05:40;;;;;;;2.85;1.10;;;22.60;83.40;;;;;;5048638;28;20464;-74
2022/08/30 13:08:19;;;;;;;2.83;1.10;;;22.60;83.20;;;;;;5045746;28;20029;-73